sensor_id;sensor_type;location;lat;lon;timestamp;pressure;altitude;pressure_sealevel;temperature;humidity
34696;BME280;20918;51.138;17.370;2022-10-16T00:00:41;100143.42;;;11.49;87.81
34696;BME280;20918;51.138;17.370;2022-10-16T00:03:44;100154.22;;;11.48;87.85
34696;BME280;20918;51.138;17.370;2022-10-16T00:06:45;100164.68;;;11.45;87.78
34696;BME280;20918;51.138;17.370;2022-10-16T00:09:46;100157.56;;;11.41;87.81
34696;BME280;20918;51.138;17.370;2022-10-16T00:12:48;100157.72;;;11.40;87.98
34696;BME280;20918;51.138;17.370;2022-10-16T00:15:49;100157.40;;;11.39;87.99
34696;BME280;20918;51.138;17.370;2022-10-16T00:18:50;100160.56;;;11.38;88.03
34696;BME280;20918;51.138;17.370;2022-10-16T00:21:51;100158.89;;;11.37;88.11
34696;BME280;20918;51.138;17.370;2022-10-16T00:24:53;100154.27;;;11.35;88.16
34696;BME280;20918;51.138;17.370;2022-10-16T00:27:54;100162.23;;;11.35;88.26
34696;BME280;20918;51.138;17.370;2022-10-16T00:30:55;100165.72;;;11.36;88.29
34696;BME280;20918;51.138;17.370;2022-10-16T00:33:56;100170.52;;;11.36;88.34
34696;BME280;20918;51.138;17.370;2022-10-16T00:36:57;100168.88;;;11.35;88.41
34696;BME280;20918;51.138;17.370;2022-10-16T00:39:58;100159.58;;;11.35;88.56
34696;BME280;20918;51.138;17.370;2022-10-16T00:42:59;100169.70;;;11.36;88.58
34696;BME280;20918;51.138;17.370;2022-10-16T00:46:02;100170.36;;;11.38;88.63
34696;BME280;20918;51.138;17.370;2022-10-16T00:49:11;100176.31;;;11.40;88.72
34696;BME280;20918;51.138;17.370;2022-10-16T00:52:15;100174.52;;;11.40;88.64
34696;BME280;20918;51.138;17.370;2022-10-16T00:55:16;100166.67;;;11.43;88.75
34696;BME280;20918;51.138;17.370;2022-10-16T00:58:17;100163.86;;;11.44;88.76
34696;BME280;20918;51.138;17.370;2022-10-16T01:01:18;100158.39;;;11.46;88.76
34696;BME280;20918;51.138;17.370;2022-10-16T01:04:19;100157.53;;;11.45;88.73
34696;BME280;20918;51.138;17.370;2022-10-16T01:11:10;100161.36;;;11.43;88.62
34696;BME280;20918;51.138;17.370;2022-10-16T01:21:01;100160.56;;;11.38;88.76
34696;BME280;20918;51.138;17.370;2022-10-16T01:27:27;100167.70;;;11.34;89.02
34696;BME280;20918;51.138;17.370;2022-10-16T01:30:32;100161.73;;;11.36;89.10
34696;BME280;20918;51.138;17.370;2022-10-16T01:33:39;100160.05;;;11.39;89.29
34696;BME280;20918;51.138;17.370;2022-10-16T01:36:50;100156.55;;;11.42;89.48
34696;BME280;20918;51.138;17.370;2022-10-16T01:39:54;100158.70;;;11.47;89.74
34696;BME280;20918;51.138;17.370;2022-10-16T01:43:22;100161.84;;;11.51;89.73
34696;BME280;20918;51.138;17.370;2022-10-16T01:46:26;100163.33;;;11.53;89.54
34696;BME280;20918;51.138;17.370;2022-10-16T01:49:33;100169.63;;;11.56;89.41
34696;BME280;20918;51.138;17.370;2022-10-16T01:52:35;100158.33;;;11.58;89.56
34696;BME280;20918;51.138;17.370;2022-10-16T01:55:41;100157.98;;;11.61;89.54
34696;BME280;20918;51.138;17.370;2022-10-16T01:58:54;100154.00;;;11.61;89.57
34696;BME280;20918;51.138;17.370;2022-10-16T02:01:56;100168.11;;;11.62;89.53
34696;BME280;20918;51.138;17.370;2022-10-16T02:05:15;100165.80;;;11.63;89.62
34696;BME280;20918;51.138;17.370;2022-10-16T02:08:28;100162.95;;;11.64;89.63
34696;BME280;20918;51.138;17.370;2022-10-16T02:11:29;100166.59;;;11.67;89.56
34696;BME280;20918;51.138;17.370;2022-10-16T02:14:31;100171.08;;;11.67;89.52
34696;BME280;20918;51.138;17.370;2022-10-16T02:17:32;100175.89;;;11.67;89.46
34696;BME280;20918;51.138;17.370;2022-10-16T02:20:51;100173.58;;;11.69;89.55
34696;BME280;20918;51.138;17.370;2022-10-16T02:23:59;100174.41;;;11.69;89.57
34696;BME280;20918;51.138;17.370;2022-10-16T02:30:43;100181.21;;;11.72;89.57
34696;BME280;20918;51.138;17.370;2022-10-16T02:33:49;100179.37;;;11.72;89.49
34696;BME280;20918;51.138;17.370;2022-10-16T02:36:52;100189.50;;;11.73;89.46
34696;BME280;20918;51.138;17.370;2022-10-16T02:39:56;100191.66;;;11.73;89.52
34696;BME280;20918;51.138;17.370;2022-10-16T02:42:57;100198.96;;;11.75;89.45
34696;BME280;20918;51.138;17.370;2022-10-16T02:45:59;100201.43;;;11.77;89.43
34696;BME280;20918;51.138;17.370;2022-10-16T02:49:00;100196.46;;;11.78;89.30
34696;BME280;20918;51.138;17.370;2022-10-16T02:52:01;100199.28;;;11.76;89.20
34696;BME280;20918;51.138;17.370;2022-10-16T02:55:04;100194.47;;;11.76;89.27
34696;BME280;20918;51.138;17.370;2022-10-16T02:58:05;100204.44;;;11.78;89.23
34696;BME280;20918;51.138;17.370;2022-10-16T03:01:06;100200.77;;;11.79;89.21
34696;BME280;20918;51.138;17.370;2022-10-16T03:04:08;100197.13;;;11.76;89.07
34696;BME280;20918;51.138;17.370;2022-10-16T03:07:11;100189.97;;;11.76;89.04
34696;BME280;20918;51.138;17.370;2022-10-16T03:10:12;100199.31;;;11.72;88.97
34696;BME280;20918;51.138;17.370;2022-10-16T03:13:13;100204.62;;;11.72;89.02
34696;BME280;20918;51.138;17.370;2022-10-16T03:16:14;100198.80;;;11.73;89.11
34696;BME280;20918;51.138;17.370;2022-10-16T03:19:16;100200.64;;;11.72;89.11
34696;BME280;20918;51.138;17.370;2022-10-16T03:22:18;100204.78;;;11.75;89.21
34696;BME280;20918;51.138;17.370;2022-10-16T03:25:19;100204.78;;;11.75;89.19
34696;BME280;20918;51.138;17.370;2022-10-16T03:28:20;100208.42;;;11.78;89.44
34696;BME280;20918;51.138;17.370;2022-10-16T03:31:21;100219.72;;;11.80;89.45
34696;BME280;20918;51.138;17.370;2022-10-16T03:34:23;100216.37;;;11.82;89.66
34696;BME280;20918;51.138;17.370;2022-10-16T03:37:24;100217.03;;;11.84;89.77
34696;BME280;20918;51.138;17.370;2022-10-16T03:40:25;100215.20;;;11.84;89.89
34696;BME280;20918;51.138;17.370;2022-10-16T03:43:27;100222.03;;;11.87;89.71
34696;BME280;20918;51.138;17.370;2022-10-16T03:46:28;100216.41;;;11.86;89.79
34696;BME280;20918;51.138;17.370;2022-10-16T03:49:30;100214.69;;;11.85;89.71
34696;BME280;20918;51.138;17.370;2022-10-16T03:52:31;100227.98;;;11.85;89.69
34696;BME280;20918;51.138;17.370;2022-10-16T03:55:32;100227.36;;;11.87;89.99
34696;BME280;20918;51.138;17.370;2022-10-16T03:58:33;100234.19;;;11.85;89.98
34696;BME280;20918;51.138;17.370;2022-10-16T04:01:34;100223.68;;;11.84;90.16
34696;BME280;20918;51.138;17.370;2022-10-16T04:04:35;100233.30;;;11.85;90.49
34696;BME280;20918;51.138;17.370;2022-10-16T04:07:36;100230.02;;;11.87;90.55
34696;BME280;20918;51.138;17.370;2022-10-16T04:10:38;100226.84;;;11.87;90.54
34696;BME280;20918;51.138;17.370;2022-10-16T04:13:39;100228.02;;;11.89;90.80
34696;BME280;20918;51.138;17.370;2022-10-16T04:16:40;100232.33;;;11.90;90.59
34696;BME280;20918;51.138;17.370;2022-10-16T04:19:41;100228.34;;;11.90;90.67
34696;BME280;20918;51.138;17.370;2022-10-16T04:22:42;100229.00;;;11.92;90.78
34696;BME280;20918;51.138;17.370;2022-10-16T04:25:43;100235.45;;;11.94;90.78
34696;BME280;20918;51.138;17.370;2022-10-16T04:28:44;100241.13;;;11.95;90.76
34696;BME280;20918;51.138;17.370;2022-10-16T04:31:46;100234.98;;;11.94;90.57
34696;BME280;20918;51.138;17.370;2022-10-16T04:34:47;100240.62;;;11.95;90.50
34696;BME280;20918;51.138;17.370;2022-10-16T04:37:48;100238.97;;;11.94;90.45
34696;BME280;20918;51.138;17.370;2022-10-16T04:40:51;100242.96;;;11.94;90.62
34696;BME280;20918;51.138;17.370;2022-10-16T04:43:53;100245.62;;;11.94;90.72
34696;BME280;20918;51.138;17.370;2022-10-16T04:46:54;100241.28;;;11.93;90.67
34696;BME280;20918;51.138;17.370;2022-10-16T04:49:55;100243.31;;;11.91;90.75
34696;BME280;20918;51.138;17.370;2022-10-16T04:52:57;100253.59;;;11.90;90.59
34696;BME280;20918;51.138;17.370;2022-10-16T04:55:58;100257.27;;;11.89;90.61
34696;BME280;20918;51.138;17.370;2022-10-16T04:59:01;100267.08;;;11.88;90.78
34696;BME280;20918;51.138;17.370;2022-10-16T05:02:06;100265.56;;;11.90;90.74
34696;BME280;20918;51.138;17.370;2022-10-16T05:05:08;100264.58;;;11.91;91.08
34696;BME280;20918;51.138;17.370;2022-10-16T05:08:09;100265.41;;;11.92;91.16
34696;BME280;20918;51.138;17.370;2022-10-16T05:11:10;100264.89;;;11.92;91.17
34696;BME280;20918;51.138;17.370;2022-10-16T05:14:11;100261.58;;;11.94;90.95
34696;BME280;20918;51.138;17.370;2022-10-16T05:17:12;100258.22;;;11.96;91.05
34696;BME280;20918;51.138;17.370;2022-10-16T05:20:13;100269.20;;;11.97;91.17
34696;BME280;20918;51.138;17.370;2022-10-16T05:23:16;100271.67;;;11.99;91.31
34696;BME280;20918;51.138;17.370;2022-10-16T05:26:25;100271.67;;;11.99;91.11
34696;BME280;20918;51.138;17.370;2022-10-16T05:29:25;100263.89;;;11.97;91.25
34696;BME280;20918;51.138;17.370;2022-10-16T05:32:26;100267.52;;;11.96;91.28
34696;BME280;20918;51.138;17.370;2022-10-16T05:35:35;100268.03;;;11.96;91.18
34696;BME280;20918;51.138;17.370;2022-10-16T05:38:36;100271.52;;;11.96;91.18
34696;BME280;20918;51.138;17.370;2022-10-16T05:41:52;100282.50;;;11.97;91.34
34696;BME280;20918;51.138;17.370;2022-10-16T05:44:59;100283.83;;;11.97;91.25
34696;BME280;20918;51.138;17.370;2022-10-16T05:48:04;100285.16;;;11.97;91.19
34696;BME280;20918;51.138;17.370;2022-10-16T05:51:10;100284.97;;;11.99;91.29
34696;BME280;20918;51.138;17.370;2022-10-16T05:54:16;100285.80;;;11.99;91.25
34696;BME280;20918;51.138;17.370;2022-10-16T05:57:19;100274.49;;;12.01;91.36
34696;BME280;20918;51.138;17.370;2022-10-16T06:00:20;100286.30;;;12.03;91.47
34696;BME280;20918;51.138;17.370;2022-10-16T06:03:21;100289.13;;;12.05;91.40
34696;BME280;20918;51.138;17.370;2022-10-16T06:06:25;100281.46;;;12.06;91.34
34696;BME280;20918;51.138;17.370;2022-10-16T06:09:30;100284.09;;;12.10;91.64
34696;BME280;20918;51.138;17.370;2022-10-16T06:12:33;100294.41;;;12.14;91.49
34696;BME280;20918;51.138;17.370;2022-10-16T06:15:34;100295.20;;;12.18;91.44
34696;BME280;20918;51.138;17.370;2022-10-16T06:18:36;100304.17;;;12.25;91.39
34696;BME280;20918;51.138;17.370;2022-10-16T06:21:39;100299.98;;;12.31;91.41
34696;BME280;20918;51.138;17.370;2022-10-16T06:24:40;100323.55;;;12.38;91.36
34696;BME280;20918;51.138;17.370;2022-10-16T06:27:43;100320.19;;;12.44;91.34
34696;BME280;20918;51.138;17.370;2022-10-16T06:30:45;100324.65;;;12.52;91.33
34696;BME280;20918;51.138;17.370;2022-10-16T07:05:39;100357.20;;;13.43;90.50
34696;BME280;20918;51.138;17.370;2022-10-16T07:08:52;100359.10;;;13.54;90.33
34696;BME280;20918;51.138;17.370;2022-10-16T07:11:54;100359.23;;;13.60;90.03
34696;BME280;20918;51.138;17.370;2022-10-16T07:14:55;100359.33;;;13.67;89.92
34696;BME280;20918;51.138;17.370;2022-10-16T07:17:56;100369.94;;;13.71;89.67
34696;BME280;20918;51.138;17.370;2022-10-16T07:21:09;100372.89;;;13.76;89.54
34696;BME280;20918;51.138;17.370;2022-10-16T07:24:16;100380.88;;;13.80;89.37
34696;BME280;20918;51.138;17.370;2022-10-16T07:27:17;100386.16;;;13.84;89.17
34696;BME280;20918;51.138;17.370;2022-10-16T07:30:18;100395.47;;;13.88;89.13
34696;BME280;20918;51.138;17.370;2022-10-16T07:33:25;100398.59;;;13.92;89.02
34696;BME280;20918;51.138;17.370;2022-10-16T07:36:25;100401.04;;;13.98;89.02
34696;BME280;20918;51.138;17.370;2022-10-16T07:39:28;100393.64;;;14.04;88.98
34696;BME280;20918;51.138;17.370;2022-10-16T07:42:31;100403.55;;;14.14;89.00
34696;BME280;20918;51.138;17.370;2022-10-16T07:45:37;100399.77;;;14.23;88.78
34696;BME280;20918;51.138;17.370;2022-10-16T07:48:48;100394.66;;;14.32;88.55
34696;BME280;20918;51.138;17.370;2022-10-16T07:52:13;100389.91;;;14.39;88.34
34696;BME280;20918;51.138;17.370;2022-10-16T07:58:48;100391.42;;;14.56;88.24
34696;BME280;20918;51.138;17.370;2022-10-16T08:01:50;100395.95;;;14.66;87.95
34696;BME280;20918;51.138;17.370;2022-10-16T08:04:51;100390.88;;;14.71;87.55
34696;BME280;20918;51.138;17.370;2022-10-16T08:07:55;100396.53;;;14.72;87.30
34696;BME280;20918;51.138;17.370;2022-10-16T08:10:56;100397.38;;;14.73;86.89
34696;BME280;20918;51.138;17.370;2022-10-16T08:13:58;100395.02;;;14.74;86.66
34696;BME280;20918;51.138;17.370;2022-10-16T08:16:59;100395.09;;;14.80;86.93
34696;BME280;20918;51.138;17.370;2022-10-16T08:20:03;100396.31;;;14.89;86.24
34696;BME280;20918;51.138;17.370;2022-10-16T08:23:08;100396.17;;;15.01;86.77
34696;BME280;20918;51.138;17.370;2022-10-16T08:26:13;100397.00;;;15.12;86.15
34696;BME280;20918;51.138;17.370;2022-10-16T08:33:35;100409.67;;;15.36;86.00
34696;BME280;20918;51.138;17.370;2022-10-16T08:36:37;100410.24;;;15.53;85.28
34696;BME280;20918;51.138;17.370;2022-10-16T08:39:38;100422.20;;;15.67;85.32
34696;BME280;20918;51.138;17.370;2022-10-16T08:53:33;100424.24;;;16.15;83.72
34696;BME280;20918;51.138;17.370;2022-10-16T08:56:35;100421.72;;;16.24;83.58
34696;BME280;20918;51.138;17.370;2022-10-16T08:59:39;100426.73;;;16.34;82.90
34696;BME280;20918;51.138;17.370;2022-10-16T09:02:46;100426.06;;;16.43;82.40
34696;BME280;20918;51.138;17.370;2022-10-16T09:06:29;100423.95;;;16.55;82.35
34696;BME280;20918;51.138;17.370;2022-10-16T09:10:29;100430.19;;;16.80;82.55
34696;BME280;20918;51.138;17.370;2022-10-16T09:21:14;100438.06;;;17.19;80.94
34696;BME280;20918;51.138;17.370;2022-10-16T09:24:18;100443.65;;;17.24;80.09
34696;BME280;20918;51.138;17.370;2022-10-16T09:27:29;100444.88;;;17.28;79.32
34696;BME280;20918;51.138;17.370;2022-10-16T09:30:39;100447.05;;;17.29;80.03
34696;BME280;20918;51.138;17.370;2022-10-16T09:33:50;100446.03;;;17.30;78.53
34696;BME280;20918;51.138;17.370;2022-10-16T09:36:54;100444.58;;;17.34;79.71
34696;BME280;20918;51.138;17.370;2022-10-16T09:39:58;100444.51;;;17.44;78.62
34696;BME280;20918;51.138;17.370;2022-10-16T09:43:12;100445.55;;;17.57;79.19
34696;BME280;20918;51.138;17.370;2022-10-16T09:46:34;100442.99;;;17.73;78.59
34696;BME280;20918;51.138;17.370;2022-10-16T09:49:50;100443.86;;;17.86;78.41
34696;BME280;20918;51.138;17.370;2022-10-16T09:53:15;100439.30;;;18.07;78.80
34696;BME280;20918;51.138;17.370;2022-10-16T09:59:45;100438.90;;;18.52;77.53
34696;BME280;20918;51.138;17.370;2022-10-16T10:02:47;100431.66;;;18.59;76.46
34696;BME280;20918;51.138;17.370;2022-10-16T10:05:49;100438.47;;;18.62;76.25
34696;BME280;20918;51.138;17.370;2022-10-16T10:09:02;100444.73;;;18.72;76.52
34696;BME280;20918;51.138;17.370;2022-10-16T10:12:06;100439.44;;;18.88;76.10
34696;BME280;20918;51.138;17.370;2022-10-16T10:15:25;100440.89;;;19.06;75.98
34696;BME280;20918;51.138;17.370;2022-10-16T10:18:29;100448.37;;;19.04;75.07
34696;BME280;20918;51.138;17.370;2022-10-16T10:21:33;100447.75;;;19.02;75.02
34696;BME280;20918;51.138;17.370;2022-10-16T10:24:35;100439.68;;;19.02;75.13
34696;BME280;20918;51.138;17.370;2022-10-16T10:38:27;100441.06;;;19.81;74.75
34696;BME280;20918;51.138;17.370;2022-10-16T10:55:52;100447.03;;;21.28;70.57
34696;BME280;20918;51.138;17.370;2022-10-16T10:58:58;100438.60;;;21.45;69.21
34696;BME280;20918;51.138;17.370;2022-10-16T11:02:24;100439.77;;;21.59;68.81
34696;BME280;20918;51.138;17.370;2022-10-16T11:06:11;100438.49;;;21.73;68.41
34696;BME280;20918;51.138;17.370;2022-10-16T11:12:44;100429.61;;;22.08;65.32
34696;BME280;20918;51.138;17.370;2022-10-16T11:15:49;100438.38;;;22.24;65.75
34696;BME280;20918;51.138;17.370;2022-10-16T11:19:13;100437.02;;;22.48;66.36
34696;BME280;20918;51.138;17.370;2022-10-16T11:22:48;100443.63;;;22.80;65.76
34696;BME280;20918;51.138;17.370;2022-10-16T11:26:04;100435.23;;;22.79;65.27
34696;BME280;20918;51.138;17.370;2022-10-16T11:29:13;100424.41;;;22.79;64.05
34696;BME280;20918;51.138;17.370;2022-10-16T11:32:24;100418.91;;;22.48;63.18
34696;BME280;20918;51.138;17.370;2022-10-16T11:35:47;100423.73;;;22.11;62.37
34696;BME280;20918;51.138;17.370;2022-10-16T11:39:01;100415.45;;;22.03;62.85
34696;BME280;20918;51.138;17.370;2022-10-16T11:42:22;100403.65;;;22.19;62.81
34696;BME280;20918;51.138;17.370;2022-10-16T11:45:39;100409.44;;;22.13;61.34
34696;BME280;20918;51.138;17.370;2022-10-16T11:48:54;100402.70;;;21.89;62.41
34696;BME280;20918;51.138;17.370;2022-10-16T11:52:16;100402.23;;;21.92;62.76
34696;BME280;20918;51.138;17.370;2022-10-16T11:55:27;100402.70;;;21.78;62.64
34696;BME280;20918;51.138;17.370;2022-10-16T11:58:54;100415.67;;;21.78;62.40
34696;BME280;20918;51.138;17.370;2022-10-16T12:08:36;100423.02;;;22.04;62.01
34696;BME280;20918;51.138;17.370;2022-10-16T12:11:38;100425.12;;;21.90;61.47
34696;BME280;20918;51.138;17.370;2022-10-16T12:14:39;100421.47;;;21.73;62.03
34696;BME280;20918;51.138;17.370;2022-10-16T12:17:40;100429.84;;;21.62;61.99
34696;BME280;20918;51.138;17.370;2022-10-16T12:20:42;100432.56;;;21.41;62.30
34696;BME280;20918;51.138;17.370;2022-10-16T12:23:56;100436.73;;;21.16;62.55
34696;BME280;20918;51.138;17.370;2022-10-16T12:27:02;100439.47;;;20.88;62.42
34696;BME280;20918;51.138;17.370;2022-10-16T12:30:06;100436.94;;;20.66;63.34
34696;BME280;20918;51.138;17.370;2022-10-16T12:33:27;100443.95;;;20.48;63.68
34696;BME280;20918;51.138;17.370;2022-10-16T12:36:34;100447.55;;;20.33;63.82
34696;BME280;20918;51.138;17.370;2022-10-16T12:39:36;100453.67;;;20.22;64.27
34696;BME280;20918;51.138;17.370;2022-10-16T12:42:39;100459.34;;;20.13;64.71
34696;BME280;20918;51.138;17.370;2022-10-16T12:45:40;100463.22;;;20.08;65.16
34696;BME280;20918;51.138;17.370;2022-10-16T12:48:43;100468.52;;;20.06;65.30
34696;BME280;20918;51.138;17.370;2022-10-16T12:51:46;100482.05;;;19.99;65.47
34696;BME280;20918;51.138;17.370;2022-10-16T12:54:47;100483.75;;;19.93;65.75
34696;BME280;20918;51.138;17.370;2022-10-16T12:58:11;100498.06;;;19.87;65.82
34696;BME280;20918;51.138;17.370;2022-10-16T13:02:11;100483.88;;;19.74;65.66
34696;BME280;20918;51.138;17.370;2022-10-16T13:05:35;100494.84;;;19.56;65.82
34696;BME280;20918;51.138;17.370;2022-10-16T13:12:29;100483.84;;;19.42;66.58
34696;BME280;20918;51.138;17.370;2022-10-16T13:29:00;100494.89;;;19.49;67.12
34696;BME280;20918;51.138;17.370;2022-10-16T13:32:07;100504.02;;;19.48;67.31
34696;BME280;20918;51.138;17.370;2022-10-16T13:35:27;100501.61;;;19.49;67.40
34696;BME280;20918;51.138;17.370;2022-10-16T13:38:33;100497.78;;;19.48;67.47
34696;BME280;20918;51.138;17.370;2022-10-16T13:41:35;100499.88;;;19.46;67.48
34696;BME280;20918;51.138;17.370;2022-10-16T13:47:49;100507.95;;;19.46;67.59
34696;BME280;20918;51.138;17.370;2022-10-16T13:51:12;100511.67;;;19.45;67.74
34696;BME280;20918;51.138;17.370;2022-10-16T13:54:18;100512.42;;;19.43;67.82
34696;BME280;20918;51.138;17.370;2022-10-16T13:57:23;100505.37;;;19.42;67.69
34696;BME280;20918;51.138;17.370;2022-10-16T14:00:32;100513.88;;;19.39;67.79
34696;BME280;20918;51.138;17.370;2022-10-16T14:03:34;100510.28;;;19.36;68.04
34696;BME280;20918;51.138;17.370;2022-10-16T14:06:41;100511.63;;;19.36;68.10
34696;BME280;20918;51.138;17.370;2022-10-16T14:09:47;100516.48;;;19.36;68.20
34696;BME280;20918;51.138;17.370;2022-10-16T14:13:05;100516.48;;;19.36;68.32
34696;BME280;20918;51.138;17.370;2022-10-16T14:16:10;100522.38;;;19.36;68.31
34696;BME280;20918;51.138;17.370;2022-10-16T14:19:23;100525.60;;;19.35;68.47
34696;BME280;20918;51.138;17.370;2022-10-16T14:22:43;100535.93;;;19.38;68.56
34696;BME280;20918;51.138;17.370;2022-10-16T14:25:42;100531.75;;;19.42;68.59
34696;BME280;20918;51.138;17.370;2022-10-16T14:28:45;100536.59;;;19.49;68.69
34696;BME280;20918;51.138;17.370;2022-10-16T14:32:00;100537.08;;;19.56;68.68
34696;BME280;20918;51.138;17.370;2022-10-16T14:35:03;100541.73;;;19.58;68.58
34696;BME280;20918;51.138;17.370;2022-10-16T14:38:06;100545.77;;;19.58;68.54
34696;BME280;20918;51.138;17.370;2022-10-16T14:41:09;100545.24;;;19.58;68.56
34696;BME280;20918;51.138;17.370;2022-10-16T14:44:12;100541.73;;;19.58;68.41
34696;BME280;20918;51.138;17.370;2022-10-16T14:47:16;100545.16;;;19.56;68.37
34696;BME280;20918;51.138;17.370;2022-10-16T14:50:20;100539.67;;;19.53;68.42
34696;BME280;20918;51.138;17.370;2022-10-16T14:53:24;100544.88;;;19.48;68.39
34696;BME280;20918;51.138;17.370;2022-10-16T14:56:44;100544.19;;;19.43;68.48
34696;BME280;20918;51.138;17.370;2022-10-16T14:59:39;100542.42;;;19.40;68.52
34696;BME280;20918;51.138;17.370;2022-10-16T15:02:42;100558.41;;;19.35;68.67
34696;BME280;20918;51.138;17.370;2022-10-16T15:05:44;100557.08;;;19.28;68.78
34696;BME280;20918;51.138;17.370;2022-10-16T15:08:45;100554.52;;;19.24;68.83
34696;BME280;20918;51.138;17.370;2022-10-16T15:11:46;100555.87;;;19.17;68.96
34696;BME280;20918;51.138;17.370;2022-10-16T15:14:48;100557.77;;;19.10;69.04
34696;BME280;20918;51.138;17.370;2022-10-16T15:17:50;100560.98;;;19.03;69.17
34696;BME280;20918;51.138;17.370;2022-10-16T15:20:57;100561.12;;;18.99;69.42
34696;BME280;20918;51.138;17.370;2022-10-16T15:23:59;100560.09;;;18.93;69.57
34696;BME280;20918;51.138;17.370;2022-10-16T15:27:01;100555.23;;;18.86;69.62
34696;BME280;20918;51.138;17.370;2022-10-16T15:30:03;100555.79;;;18.79;69.78
34696;BME280;20918;51.138;17.370;2022-10-16T15:33:15;100567.48;;;18.75;69.89
34696;BME280;20918;51.138;17.370;2022-10-16T15:36:14;100571.88;;;18.72;69.93
34696;BME280;20918;51.138;17.370;2022-10-16T15:39:18;100571.59;;;18.65;70.04
34696;BME280;20918;51.138;17.370;2022-10-16T15:42:20;100574.70;;;18.62;70.18
34696;BME280;20918;51.138;17.370;2022-10-16T15:45:27;100575.52;;;18.55;70.22
34696;BME280;20918;51.138;17.370;2022-10-16T15:48:29;100576.58;;;18.48;70.25
34696;BME280;20918;51.138;17.370;2022-10-16T15:51:33;100568.01;;;18.42;70.39
34696;BME280;20918;51.138;17.370;2022-10-16T15:54:34;100579.25;;;18.34;70.50
34696;BME280;20918;51.138;17.370;2022-10-16T15:57:37;100589.19;;;18.27;70.58
34696;BME280;20918;51.138;17.370;2022-10-16T16:00:40;100597.73;;;18.20;70.79
34696;BME280;20918;51.138;17.370;2022-10-16T16:03:42;100594.02;;;18.08;71.03
34696;BME280;20918;51.138;17.370;2022-10-16T16:06:43;100604.50;;;17.96;71.39
34696;BME280;20918;51.138;17.370;2022-10-16T16:09:47;100606.96;;;17.84;71.73
34696;BME280;20918;51.138;17.370;2022-10-16T16:12:49;100610.53;;;17.74;71.79
34696;BME280;20918;51.138;17.370;2022-10-16T16:15:52;100616.90;;;17.66;71.96
34696;BME280;20918;51.138;17.370;2022-10-16T16:18:54;100614.16;;;17.53;72.15
34696;BME280;20918;51.138;17.370;2022-10-16T16:21:56;100621.03;;;17.45;72.44
34696;BME280;20918;51.138;17.370;2022-10-16T16:24:59;100621.31;;;17.39;72.65
34696;BME280;20918;51.138;17.370;2022-10-16T16:28:02;100635.83;;;17.34;72.94
34696;BME280;20918;51.138;17.370;2022-10-16T16:31:07;100637.97;;;17.28;73.08
34696;BME280;20918;51.138;17.370;2022-10-16T16:34:09;100641.14;;;17.21;73.23
34696;BME280;20918;51.138;17.370;2022-10-16T16:37:11;100638.22;;;17.16;73.54
34696;BME280;20918;51.138;17.370;2022-10-16T16:40:12;100644.37;;;17.10;73.87
34696;BME280;20918;51.138;17.370;2022-10-16T16:43:14;100654.85;;;17.05;74.29
34696;BME280;20918;51.138;17.370;2022-10-16T16:46:15;100653.97;;;16.97;74.61
34696;BME280;20918;51.138;17.370;2022-10-16T16:49:20;100653.41;;;16.91;74.91
34696;BME280;20918;51.138;17.370;2022-10-16T16:52:28;100654.84;;;16.87;75.32
34696;BME280;20918;51.138;17.370;2022-10-16T16:55:30;100654.59;;;16.82;75.52
34696;BME280;20918;51.138;17.370;2022-10-16T16:58:32;100667.55;;;16.78;75.72
34696;BME280;20918;51.138;17.370;2022-10-16T17:01:34;100661.39;;;16.74;75.99
34696;BME280;20918;51.138;17.370;2022-10-16T17:04:35;100673.14;;;16.73;76.10
34696;BME280;20918;51.138;17.370;2022-10-16T17:07:36;100681.88;;;16.71;76.03
34696;BME280;20918;51.138;17.370;2022-10-16T17:10:43;100681.23;;;16.69;76.19
34696;BME280;20918;51.138;17.370;2022-10-16T17:13:46;100685.85;;;16.64;76.30
34696;BME280;20918;51.138;17.370;2022-10-16T17:16:51;100681.58;;;16.59;76.22
34696;BME280;20918;51.138;17.370;2022-10-16T17:19:55;100689.66;;;16.55;76.22
34696;BME280;20918;51.138;17.370;2022-10-16T17:22:57;100690.26;;;16.50;76.38
34696;BME280;20918;51.138;17.370;2022-10-16T17:26:14;100706.38;;;16.46;76.54
34696;BME280;20918;51.138;17.370;2022-10-16T17:29:15;100706.97;;;16.42;76.57
34696;BME280;20918;51.138;17.370;2022-10-16T17:32:18;100716.08;;;16.36;76.63
34696;BME280;20918;51.138;17.370;2022-10-16T17:35:21;100717.33;;;16.30;76.71
34696;BME280;20918;51.138;17.370;2022-10-16T17:38:24;100725.13;;;16.25;76.83
34696;BME280;20918;51.138;17.370;2022-10-16T17:41:26;100735.87;;;16.21;76.95
34696;BME280;20918;51.138;17.370;2022-10-16T17:44:28;100741.78;;;16.16;77.00
34696;BME280;20918;51.138;17.370;2022-10-16T17:47:29;100741.33;;;16.12;77.29
34696;BME280;20918;51.138;17.370;2022-10-16T17:50:30;100748.61;;;16.08;77.50
34696;BME280;20918;51.138;17.370;2022-10-16T17:53:35;100744.45;;;16.05;77.75
34696;BME280;20918;51.138;17.370;2022-10-16T17:56:37;100749.33;;;16.02;77.86
34696;BME280;20918;51.138;17.370;2022-10-16T17:59:38;100743.91;;;15.95;78.19
34696;BME280;20918;51.138;17.370;2022-10-16T18:02:39;100741.16;;;15.88;78.21
34696;BME280;20918;51.138;17.370;2022-10-16T18:05:42;100744.07;;;15.83;78.31
34696;BME280;20918;51.138;17.370;2022-10-16T18:08:43;100743.59;;;15.79;78.39
34696;BME280;20918;51.138;17.370;2022-10-16T18:11:45;100747.15;;;15.76;78.39